createdAt,value
2022-12-13T00:00:23.877Z,1013.08
2022-12-13T00:01:26.624Z,1013.07
2022-12-13T00:02:29.625Z,1013.03
2022-12-13T00:04:04.755Z,1013.03
2022-12-13T00:05:08.148Z,1013.01
2022-12-13T00:06:11.342Z,1013.02
2022-12-13T00:07:46.079Z,1013.00
2022-12-13T00:08:49.283Z,1012.97
2022-12-13T00:09:52.512Z,1012.97
2022-12-13T00:11:27.798Z,1012.98
2022-12-13T00:12:30.705Z,1012.91
2022-12-13T00:13:33.618Z,1012.97
2022-12-13T00:15:08.350Z,1012.94
2022-12-13T00:16:11.879Z,1012.93
2022-12-13T00:17:15.078Z,1012.92
2022-12-13T00:18:49.613Z,1012.93
2022-12-13T00:19:52.415Z,1012.88
2022-12-13T00:20:55.283Z,1012.85
2022-12-13T00:22:30.313Z,1012.85
2022-12-13T00:23:33.168Z,1012.86
2022-12-13T00:24:39.051Z,1012.85
2022-12-13T00:26:16.277Z,1012.83
2022-12-13T00:27:19.137Z,1012.88
2022-12-13T00:28:21.935Z,1012.86
2022-12-13T00:29:56.464Z,1012.83
2022-12-13T00:31:13.546Z,1012.83
2022-12-13T00:32:58.103Z,1012.84
2022-12-13T00:34:32.697Z,1012.87
2022-12-13T00:35:35.462Z,1012.89
2022-12-13T00:36:38.445Z,1012.87
2022-12-13T00:38:13.005Z,1012.88
2022-12-13T00:39:15.907Z,1012.89
2022-12-13T00:40:18.842Z,1012.90
2022-12-13T00:41:53.400Z,1012.89
2022-12-13T00:42:56.184Z,1012.90
2022-12-13T00:43:59.173Z,1012.85
2022-12-13T00:45:33.777Z,1012.88
2022-12-13T00:46:37.164Z,1012.83
2022-12-13T00:47:39.907Z,1012.86
2022-12-13T00:49:14.461Z,1012.88
2022-12-13T00:50:17.150Z,1012.81
2022-12-13T00:51:19.885Z,1012.81
2022-12-13T00:52:54.367Z,1012.81
2022-12-13T00:53:57.043Z,1012.82
2022-12-13T00:54:59.847Z,1012.79
2022-12-13T00:56:34.876Z,1012.82
2022-12-13T00:57:37.761Z,1012.81
2022-12-13T00:58:40.739Z,1012.81
2022-12-13T01:00:22.412Z,1012.79
2022-12-13T01:01:25.543Z,1012.76
2022-12-13T01:02:28.759Z,1012.78
2022-12-13T01:04:03.873Z,1012.78
2022-12-13T01:05:06.756Z,1012.71
2022-12-13T01:07:02.799Z,1012.68
2022-12-13T01:08:37.963Z,1012.64
2022-12-13T01:09:40.802Z,1012.66
2022-12-13T01:10:43.487Z,1012.67
2022-12-13T01:12:18.676Z,1012.68
2022-12-13T01:13:21.456Z,1012.66
2022-12-13T01:14:24.204Z,1012.70
2022-12-13T01:15:59.421Z,1012.71
2022-12-13T01:17:02.588Z,1012.63
2022-12-13T01:18:06.911Z,1012.66
2022-12-13T01:19:41.503Z,1012.65
2022-12-13T01:20:44.216Z,1012.67
2022-12-13T01:21:47.073Z,1012.65
2022-12-13T01:23:23.379Z,1012.61
2022-12-13T01:24:26.184Z,1012.64
2022-12-13T01:25:28.836Z,1012.62
2022-12-13T01:27:08.630Z,1012.60
2022-12-13T01:28:11.364Z,1012.65
2022-12-13T01:29:14.191Z,1012.67
2022-12-13T01:30:50.138Z,1012.67
2022-12-13T01:31:53.377Z,1012.67
2022-12-13T01:32:56.159Z,1012.67
2022-12-13T01:34:43.236Z,1012.68
2022-12-13T01:35:46.068Z,1012.67
2022-12-13T01:36:49.586Z,1012.68
2022-12-13T01:38:32.143Z,1012.70
2022-12-13T01:39:49.696Z,1012.70
2022-12-13T01:41:27.225Z,1012.75
2022-12-13T01:43:03.559Z,1012.74
2022-12-13T01:44:17.700Z,1012.75
2022-12-13T01:45:21.049Z,1012.70
2022-12-13T01:46:56.084Z,1012.68
2022-12-13T01:47:58.853Z,1012.72
2022-12-13T01:49:01.691Z,1012.68
2022-12-13T01:50:51.238Z,1012.69
2022-12-13T01:51:53.972Z,1012.66
2022-12-13T01:52:56.797Z,1012.62
2022-12-13T01:54:46.540Z,1012.62
2022-12-13T01:55:55.674Z,1012.59
2022-12-13T01:57:06.551Z,1012.59
2022-12-13T01:58:43.173Z,1012.62
2022-12-13T01:59:45.916Z,1012.62
2022-12-13T02:00:23.872Z,1012.63
2022-12-13T02:01:27.333Z,1012.61
2022-12-13T02:02:30.374Z,1012.57
2022-12-13T02:04:13.364Z,1012.50
2022-12-13T02:05:16.404Z,1012.49
2022-12-13T02:06:19.704Z,1012.51
2022-12-13T02:07:58.812Z,1012.55
2022-12-13T02:09:01.902Z,1012.57
2022-12-13T02:10:08.616Z,1012.63
2022-12-13T02:11:43.068Z,1012.67
2022-12-13T02:12:45.864Z,1012.66
2022-12-13T02:13:48.653Z,1012.69
2022-12-13T02:15:24.115Z,1012.70
2022-12-13T02:16:34.390Z,1012.72
2022-12-13T02:17:45.064Z,1012.70
2022-12-13T02:19:20.379Z,1012.69
2022-12-13T02:20:32.867Z,1012.68
2022-12-13T02:21:35.709Z,1012.75
2022-12-13T02:23:10.349Z,1012.70
2022-12-13T02:24:20.539Z,1012.70
2022-12-13T02:25:28.892Z,1012.68
2022-12-13T02:27:04.476Z,1012.71
2022-12-13T02:28:43.046Z,1012.72
2022-12-13T02:29:45.845Z,1012.66
2022-12-13T02:31:20.818Z,1012.67
2022-12-13T02:32:23.802Z,1012.64
2022-12-13T02:33:33.278Z,1012.65
2022-12-13T02:35:08.011Z,1012.60
2022-12-13T02:36:11.461Z,1012.62
2022-12-13T02:37:24.080Z,1012.61
2022-12-13T02:38:58.718Z,1012.62
2022-12-13T02:40:01.424Z,1012.66
2022-12-13T02:41:06.577Z,1012.60
2022-12-13T02:42:41.201Z,1012.58
2022-12-13T02:43:51.096Z,1012.59
2022-12-13T02:45:20.109Z,1012.64
2022-12-13T02:46:56.562Z,1012.60
2022-12-13T02:48:13.459Z,1012.59
2022-12-13T02:49:16.195Z,1012.56
2022-12-13T02:50:50.866Z,1012.56
2022-12-13T02:51:53.629Z,1012.56
2022-12-13T02:52:58.739Z,1012.59
2022-12-13T02:54:33.822Z,1012.50
2022-12-13T02:55:40.084Z,1012.53
2022-12-13T02:56:46.490Z,1012.51
2022-12-13T02:58:21.009Z,1012.50
2022-12-13T02:59:23.559Z,1012.47
2022-12-13T03:00:23.475Z,1012.51
2022-12-13T03:01:46.261Z,1012.50
2022-12-13T03:03:23.352Z,1012.46
2022-12-13T03:04:58.510Z,1012.44
2022-12-13T03:06:01.789Z,1012.43
2022-12-13T03:07:04.556Z,1012.41
2022-12-13T03:08:39.384Z,1012.43
2022-12-13T03:09:42.084Z,1012.40
2022-12-13T03:10:44.776Z,1012.43
2022-12-13T03:12:19.308Z,1012.42
2022-12-13T03:13:22.146Z,1012.46
2022-12-13T03:14:30.538Z,1012.43
2022-12-13T03:16:07.032Z,1012.46
2022-12-13T03:17:14.932Z,1012.44
2022-12-13T03:18:17.706Z,1012.45
2022-12-13T03:19:52.212Z,1012.44
2022-12-13T03:21:09.483Z,1012.46
2022-12-13T03:22:12.316Z,1012.50
2022-12-13T03:23:47.090Z,1012.50
2022-12-13T03:24:49.909Z,1012.50
2022-12-13T03:25:52.729Z,1012.47
2022-12-13T03:27:27.442Z,1012.46
2022-12-13T03:28:30.245Z,1012.46
2022-12-13T03:29:36.049Z,1012.43
2022-12-13T03:31:10.963Z,1012.44
2022-12-13T03:32:13.991Z,1012.44
2022-12-13T03:33:16.667Z,1012.44
2022-12-13T03:35:06.597Z,1012.43
2022-12-13T03:36:41.918Z,1012.44
2022-12-13T03:37:47.023Z,1012.48
2022-12-13T03:39:21.751Z,1012.45
2022-12-13T03:40:24.543Z,1012.47
2022-12-13T03:41:27.325Z,1012.48
2022-12-13T03:43:01.789Z,1012.47
2022-12-13T03:44:13.481Z,1012.47
2022-12-13T03:45:23.808Z,1012.50
2022-12-13T03:47:00.700Z,1012.46
2022-12-13T03:48:03.737Z,1012.45
2022-12-13T03:49:21.013Z,1012.45
2022-12-13T03:51:24.181Z,1012.47
2022-12-13T03:52:26.981Z,1012.49
2022-12-13T03:53:44.088Z,1012.47
2022-12-13T03:55:19.336Z,1012.48
2022-12-13T03:56:21.953Z,1012.45
2022-12-13T03:57:25.268Z,1012.46
2022-12-13T03:59:05.206Z,1012.45
2022-12-13T04:00:23.096Z,1012.44
2022-12-13T04:01:26.012Z,1012.44
2022-12-13T04:02:43.044Z,1012.41
2022-12-13T04:04:18.115Z,1012.42
2022-12-13T04:05:21.573Z,1012.40
2022-12-13T04:06:38.705Z,1012.35
2022-12-13T04:08:34.672Z,1012.36
2022-12-13T04:09:42.742Z,1012.40
2022-12-13T04:10:45.752Z,1012.39
2022-12-13T04:12:28.623Z,1012.38
2022-12-13T04:13:36.983Z,1012.43
2022-12-13T04:14:39.761Z,1012.38
2022-12-13T04:16:15.062Z,1012.35
2022-12-13T04:17:18.316Z,1012.40
2022-12-13T04:18:21.066Z,1012.40
2022-12-13T04:19:55.529Z,1012.36
2022-12-13T04:20:58.370Z,1012.38
2022-12-13T04:22:01.234Z,1012.40
2022-12-13T04:23:42.597Z,1012.37
2022-12-13T04:24:47.266Z,1012.35
2022-12-13T04:25:50.057Z,1012.34
2022-12-13T04:27:24.540Z,1012.35
2022-12-13T04:28:34.329Z,1012.29
2022-12-13T04:29:46.338Z,1012.32
2022-12-13T04:31:21.111Z,1012.30
2022-12-13T04:32:38.251Z,1012.31
2022-12-13T04:33:41.004Z,1012.30
2022-12-13T04:35:24.342Z,1012.31
2022-12-13T04:36:43.565Z,1012.30
2022-12-13T04:37:49.183Z,1012.30
2022-12-13T04:39:40.186Z,1012.34
2022-12-13T04:40:58.404Z,1012.32
2022-12-13T04:42:01.109Z,1012.33
2022-12-13T04:43:40.588Z,1012.36
2022-12-13T04:44:51.909Z,1012.32
2022-12-13T04:45:54.699Z,1012.37
2022-12-13T04:47:29.821Z,1012.33
2022-12-13T04:48:42.863Z,1012.34
2022-12-13T04:49:45.725Z,1012.31
2022-12-13T04:51:20.371Z,1012.28
2022-12-13T04:52:28.239Z,1012.31
2022-12-13T04:53:31.061Z,1012.31
2022-12-13T04:55:28.700Z,1012.26
2022-12-13T04:56:31.464Z,1012.24
2022-12-13T04:57:34.316Z,1012.25
2022-12-13T04:59:14.631Z,1012.27
2022-12-13T05:00:23.629Z,1012.25
2022-12-13T05:01:30.887Z,1012.25
2022-12-13T05:02:35.709Z,1012.28
2022-12-13T05:04:10.759Z,1012.30
2022-12-13T05:05:52.626Z,1012.29
2022-12-13T05:07:13.730Z,1012.31
2022-12-13T05:08:16.815Z,1012.28
2022-12-13T05:09:57.704Z,1012.29
2022-12-13T05:11:35.354Z,1012.29
2022-12-13T05:13:11.842Z,1012.27
2022-12-13T05:14:46.778Z,1012.24
2022-12-13T05:15:53.693Z,1012.26
2022-12-13T05:16:58.512Z,1012.27
2022-12-13T05:18:33.151Z,1012.25
2022-12-13T05:19:42.889Z,1012.27
2022-12-13T05:20:45.766Z,1012.22
2022-12-13T05:22:26.125Z,1012.23
2022-12-13T05:23:34.299Z,1012.20
2022-12-13T05:24:37.117Z,1012.26
2022-12-13T05:26:12.066Z,1012.19
2022-12-13T05:27:37.711Z,1012.22
2022-12-13T05:28:55.214Z,1012.23
2022-12-13T05:30:29.813Z,1012.20
2022-12-13T05:31:38.584Z,1012.23
2022-12-13T05:32:49.964Z,1012.22
2022-12-13T05:34:24.614Z,1012.15
2022-12-13T05:35:35.044Z,1012.20
2022-12-13T05:36:45.354Z,1012.13
2022-12-13T05:38:26.455Z,1012.09
2022-12-13T05:39:40.822Z,1012.06
2022-12-13T05:40:43.555Z,1012.08
2022-12-13T05:42:17.967Z,1012.02
2022-12-13T05:43:49.241Z,1012.03
2022-12-13T05:44:51.949Z,1012.03
2022-12-13T05:46:26.944Z,1012.04
2022-12-13T05:47:37.274Z,1011.97
2022-12-13T05:48:39.989Z,1012.03
2022-12-13T05:50:14.568Z,1011.94
2022-12-13T05:51:22.444Z,1011.93
2022-12-13T05:52:30.443Z,1011.89
2022-12-13T05:54:22.814Z,1011.87
2022-12-13T05:55:29.534Z,1011.86
2022-12-13T05:56:34.633Z,1011.87
2022-12-13T05:58:23.135Z,1011.87
2022-12-13T05:59:39.566Z,1011.92
2022-12-13T06:00:41.958Z,1011.94
2022-12-13T06:01:49.796Z,1011.93
2022-12-13T06:02:53.819Z,1011.96
2022-12-13T06:04:34.559Z,1011.96
2022-12-13T06:05:37.486Z,1011.93
2022-12-13T06:06:40.371Z,1011.94
2022-12-13T06:08:36.835Z,1011.94
2022-12-13T06:09:45.930Z,1011.93
2022-12-13T06:11:43.536Z,1011.89
2022-12-13T06:14:34.441Z,1011.91
2022-12-13T06:15:50.436Z,1011.90
2022-12-13T06:17:14.472Z,1011.91
2022-12-13T06:19:03.368Z,1011.88
2022-12-13T06:20:23.333Z,1011.87
2022-12-13T06:21:26.964Z,1011.86
2022-12-13T06:23:15.070Z,1011.87
2022-12-13T06:24:17.791Z,1011.85
2022-12-13T06:25:44.558Z,1011.82
2022-12-13T06:27:22.084Z,1011.80
2022-12-13T06:28:24.751Z,1011.83
2022-12-13T06:29:36.329Z,1011.81
2022-12-13T06:31:12.158Z,1011.82
2022-12-13T06:32:15.103Z,1011.78
2022-12-13T06:33:23.549Z,1011.80
2022-12-13T06:35:46.760Z,1011.81
2022-12-13T06:36:49.618Z,1011.83
2022-12-13T06:37:53.140Z,1011.83
2022-12-13T06:39:50.383Z,1011.81
2022-12-13T06:40:53.269Z,1011.79
2022-12-13T06:41:57.670Z,1011.82
2022-12-13T06:43:41.245Z,1011.81
2022-12-13T06:44:43.958Z,1011.88
2022-12-13T06:45:53.654Z,1011.83
2022-12-13T06:47:43.634Z,1011.84
2022-12-13T06:48:46.374Z,1011.84
2022-12-13T06:49:50.390Z,1011.85
2022-12-13T06:51:44.493Z,1011.85
2022-12-13T06:52:47.298Z,1011.84
2022-12-13T06:53:50.017Z,1011.94
2022-12-13T06:55:35.526Z,1011.92
2022-12-13T06:56:38.344Z,1011.89
2022-12-13T06:57:41.308Z,1011.91
2022-12-13T06:59:16.008Z,1011.88
2022-12-13T07:00:36.869Z,1011.88
2022-12-13T07:02:03.148Z,1011.87
2022-12-13T07:03:23.984Z,1011.91
2022-12-13T07:05:22.494Z,1011.92
2022-12-13T07:06:29.374Z,1011.93
2022-12-13T07:07:32.155Z,1011.89
2022-12-13T07:09:14.548Z,1011.92
2022-12-13T07:10:28.789Z,1011.89
2022-12-13T07:11:31.658Z,1011.91
2022-12-13T07:13:15.063Z,1011.88
2022-12-13T07:14:17.867Z,1011.91
2022-12-13T07:15:27.473Z,1011.92
2022-12-13T07:17:09.330Z,1011.96
2022-12-13T07:18:30.773Z,1011.95
2022-12-13T07:19:41.429Z,1011.97
2022-12-13T07:21:27.911Z,1011.95
2022-12-13T07:22:34.598Z,1011.95
2022-12-13T07:23:54.981Z,1011.97
2022-12-13T07:25:40.336Z,1011.91
2022-12-13T07:26:43.111Z,1011.90
2022-12-13T07:27:45.810Z,1011.91
2022-12-13T07:29:34.163Z,1011.94
2022-12-13T07:30:40.626Z,1011.90
2022-12-13T07:31:44.872Z,1011.92
2022-12-13T07:33:33.844Z,1011.93
2022-12-13T07:34:36.672Z,1011.98
2022-12-13T07:35:43.196Z,1012.04
2022-12-13T07:37:42.244Z,1012.03
2022-12-13T07:38:45.120Z,1012.05
2022-12-13T07:39:48.054Z,1012.01
2022-12-13T07:41:35.552Z,1012.07
2022-12-13T07:42:38.304Z,1012.07
2022-12-13T07:43:41.259Z,1012.03
2022-12-13T07:45:21.835Z,1012.07
2022-12-13T07:46:38.814Z,1012.09
2022-12-13T07:47:42.093Z,1012.07
2022-12-13T07:49:16.655Z,1012.11
2022-12-13T07:50:43.473Z,1012.11
2022-12-13T07:51:52.061Z,1012.14
2022-12-13T07:53:27.412Z,1012.19
2022-12-13T07:54:30.893Z,1012.13
2022-12-13T07:55:44.111Z,1012.16
2022-12-13T07:57:18.759Z,1012.23
2022-12-13T07:58:21.543Z,1012.21
2022-12-13T07:59:34.519Z,1012.21
2022-12-13T08:00:22.810Z,1012.22
2022-12-13T08:01:25.808Z,1012.19
2022-12-13T08:02:28.837Z,1012.25
2022-12-13T08:04:17.478Z,1012.23
2022-12-13T08:05:44.989Z,1012.27
2022-12-13T08:06:55.990Z,1012.22
2022-12-13T08:08:37.311Z,1012.24
2022-12-13T08:09:40.179Z,1012.28
2022-12-13T08:10:49.874Z,1012.22
2022-12-13T08:12:34.220Z,1012.28
2022-12-13T08:13:36.902Z,1012.25
2022-12-13T08:14:39.806Z,1012.31
2022-12-13T08:16:39.902Z,1012.30
2022-12-13T08:17:43.109Z,1012.31
2022-12-13T08:18:45.760Z,1012.32
2022-12-13T08:20:33.323Z,1012.31
2022-12-13T08:22:14.144Z,1012.35
2022-12-13T08:23:35.480Z,1012.37
2022-12-13T08:25:13.163Z,1012.35
2022-12-13T08:26:15.911Z,1012.37
2022-12-13T08:27:18.787Z,1012.36
2022-12-13T08:29:00.775Z,1012.40
2022-12-13T08:30:28.856Z,1012.39
2022-12-13T08:31:39.749Z,1012.42
2022-12-13T08:33:19.403Z,1012.43
2022-12-13T08:34:22.553Z,1012.46
2022-12-13T08:35:29.000Z,1012.46
2022-12-13T08:37:14.289Z,1012.45
2022-12-13T08:38:22.486Z,1012.43
2022-12-13T08:39:25.739Z,1012.44
2022-12-13T08:41:03.776Z,1012.45
2022-12-13T08:42:22.918Z,1012.42
2022-12-13T08:43:30.872Z,1012.44
2022-12-13T08:45:05.437Z,1012.48
2022-12-13T08:46:12.807Z,1012.46
2022-12-13T08:47:24.596Z,1012.43
2022-12-13T08:49:06.684Z,1012.46
2022-12-13T08:50:14.992Z,1012.46
2022-12-13T08:51:24.341Z,1012.43
2022-12-13T08:53:04.802Z,1012.47
2022-12-13T08:54:43.134Z,1012.47
2022-12-13T08:55:45.860Z,1012.41
2022-12-13T08:57:20.319Z,1012.48
2022-12-13T08:58:23.325Z,1012.55
2022-12-13T08:59:27.461Z,1012.46
2022-12-13T09:00:23.718Z,1012.53
2022-12-13T09:01:33.874Z,1012.55
2022-12-13T09:02:50.014Z,1012.51
2022-12-13T09:04:43.117Z,1012.46
2022-12-13T09:05:46.542Z,1012.49
2022-12-13T09:06:49.299Z,1012.49
2022-12-13T09:08:40.992Z,1012.50
2022-12-13T09:10:25.263Z,1012.53
2022-12-13T09:11:51.445Z,1012.57
2022-12-13T09:14:45.370Z,1012.56
2022-12-13T09:16:23.265Z,1012.54
2022-12-13T09:17:58.324Z,1012.56
2022-12-13T09:20:47.650Z,1012.54
2022-12-13T09:22:39.282Z,1012.58
2022-12-13T09:24:13.426Z,1012.59
2022-12-13T09:26:44.261Z,1012.56
2022-12-13T09:28:14.342Z,1012.59
2022-12-13T09:29:23.127Z,1012.59
2022-12-13T09:30:57.676Z,1012.53
2022-12-13T09:32:04.977Z,1012.54
2022-12-13T09:33:41.314Z,1012.47
2022-12-13T09:35:16.655Z,1012.47
2022-12-13T09:36:19.505Z,1012.45
2022-12-13T09:37:29.025Z,1012.43
2022-12-13T09:39:09.580Z,1012.43
2022-12-13T09:40:37.855Z,1012.43
2022-12-13T09:41:52.050Z,1012.43
2022-12-13T09:45:03.343Z,1012.48
2022-12-13T09:46:50.291Z,1012.48
2022-12-13T09:48:22.984Z,1012.47
2022-12-13T09:50:57.635Z,1012.46
2022-12-13T09:53:11.659Z,1012.49
2022-12-13T09:54:26.752Z,1012.46
2022-12-13T09:56:22.342Z,1012.47
2022-12-13T09:57:42.796Z,1012.48
2022-12-13T09:58:45.517Z,1012.42
2022-12-13T10:00:22.390Z,1012.46
2022-12-13T10:01:34.233Z,1012.44
2022-12-13T10:02:37.635Z,1012.48
2022-12-13T10:04:12.922Z,1012.46
2022-12-13T10:05:44.617Z,1012.46
2022-12-13T10:06:47.351Z,1012.48
2022-12-13T10:08:23.258Z,1012.46
2022-12-13T10:09:26.022Z,1012.42
2022-12-13T10:10:28.874Z,1012.38
2022-12-13T10:12:03.505Z,1012.37
2022-12-13T10:13:06.395Z,1012.32
2022-12-13T10:14:12.775Z,1012.33
2022-12-13T10:15:47.326Z,1012.35
2022-12-13T10:16:50.475Z,1012.31
2022-12-13T10:18:01.126Z,1012.31
2022-12-13T10:19:41.231Z,1012.30
2022-12-13T10:20:44.208Z,1012.28
2022-12-13T10:21:47.007Z,1012.26
2022-12-13T10:24:36.818Z,1012.24
2022-12-13T10:25:40.950Z,1012.22
2022-12-13T10:27:01.045Z,1012.23
2022-12-13T10:28:35.739Z,1012.16
2022-12-13T10:29:38.553Z,1012.16
2022-12-13T10:30:41.600Z,1012.17
2022-12-13T10:32:16.387Z,1012.16
2022-12-13T10:33:30.180Z,1012.14
2022-12-13T10:34:33.018Z,1012.14
2022-12-13T10:36:08.625Z,1012.11
2022-12-13T10:37:18.062Z,1012.07
2022-12-13T10:38:20.796Z,1012.05
2022-12-13T10:40:01.511Z,1011.96
2022-12-13T10:41:18.961Z,1012.02
2022-12-13T10:42:34.028Z,1011.97
2022-12-13T10:44:09.800Z,1011.99
2022-12-13T10:45:12.472Z,1012.00
2022-12-13T10:46:30.498Z,1011.98
2022-12-13T10:48:15.743Z,1011.93
2022-12-13T10:49:27.465Z,1011.95
2022-12-13T10:50:30.386Z,1011.91
2022-12-13T10:52:05.436Z,1011.89
2022-12-13T10:53:34.173Z,1011.88
2022-12-13T10:54:54.462Z,1011.88
2022-12-13T10:56:54.259Z,1011.92
2022-12-13T10:57:57.154Z,1011.94
2022-12-13T10:59:00.023Z,1011.91
2022-12-13T11:00:26.910Z,1011.86
2022-12-13T11:01:30.131Z,1011.86
2022-12-13T11:02:33.361Z,1011.90
2022-12-13T11:04:13.650Z,1011.92
2022-12-13T11:05:28.904Z,1011.90
2022-12-13T11:06:31.801Z,1011.84
2022-12-13T11:08:12.813Z,1011.85
2022-12-13T11:09:29.083Z,1011.87
2022-12-13T11:11:00.856Z,1011.80
2022-12-13T11:12:35.660Z,1011.83
2022-12-13T11:13:38.460Z,1011.77
2022-12-13T11:14:49.241Z,1011.77
2022-12-13T11:16:24.219Z,1011.76
2022-12-13T11:17:27.322Z,1011.76
2022-12-13T11:18:30.823Z,1011.71
2022-12-13T11:20:05.794Z,1011.74
2022-12-13T11:21:08.610Z,1011.73
2022-12-13T11:22:11.361Z,1011.71
2022-12-13T11:23:45.806Z,1011.68
2022-12-13T11:24:53.616Z,1011.67
2022-12-13T11:25:56.396Z,1011.70
2022-12-13T11:27:34.903Z,1011.64
2022-12-13T11:28:39.481Z,1011.60
2022-12-13T11:29:43.095Z,1011.58
2022-12-13T11:31:17.904Z,1011.57
2022-12-13T11:32:28.464Z,1011.57
2022-12-13T11:33:31.193Z,1011.55
2022-12-13T11:35:17.764Z,1011.49
2022-12-13T11:36:23.007Z,1011.51
2022-12-13T11:37:25.807Z,1011.47
2022-12-13T11:39:03.693Z,1011.43
2022-12-13T11:40:13.284Z,1011.42
2022-12-13T11:41:31.357Z,1011.45
2022-12-13T11:43:07.167Z,1011.45
2022-12-13T11:44:13.131Z,1011.45
2022-12-13T11:45:22.785Z,1011.44
2022-12-13T11:46:58.480Z,1011.47
2022-12-13T11:48:09.505Z,1011.45
2022-12-13T11:49:13.123Z,1011.45
2022-12-13T11:50:47.819Z,1011.47
2022-12-13T11:51:52.583Z,1011.47
2022-12-13T11:52:55.295Z,1011.47
2022-12-13T11:54:35.673Z,1011.53
2022-12-13T11:55:38.761Z,1011.51
2022-12-13T11:56:44.738Z,1011.51
2022-12-13T11:59:20.670Z,1011.44
2022-12-13T12:00:40.334Z,1011.42
2022-12-13T12:01:51.827Z,1011.41
2022-12-13T12:03:09.502Z,1011.45
2022-12-13T12:04:44.882Z,1011.43
2022-12-13T12:06:01.836Z,1011.40
2022-12-13T12:07:33.294Z,1011.39
2022-12-13T12:09:57.013Z,1011.44
2022-12-13T12:11:06.835Z,1011.41
2022-12-13T12:12:09.734Z,1011.42
2022-12-13T12:14:03.136Z,1011.45
2022-12-13T12:15:26.368Z,1011.47
2022-12-13T12:16:41.835Z,1011.48
2022-12-13T12:18:24.375Z,1011.47
2022-12-13T12:19:27.365Z,1011.46
2022-12-13T12:20:35.809Z,1011.44
2022-12-13T12:22:50.680Z,1011.45
2022-12-13T12:24:02.295Z,1011.44
2022-12-13T12:25:05.735Z,1011.42
2022-12-13T12:26:41.650Z,1011.37
2022-12-13T12:27:44.420Z,1011.39
2022-12-13T12:28:55.643Z,1011.39
2022-12-13T12:30:41.237Z,1011.37
2022-12-13T12:31:57.103Z,1011.31
2022-12-13T12:32:59.931Z,1011.35
2022-12-13T12:34:39.266Z,1011.32
2022-12-13T12:35:52.292Z,1011.34
2022-12-13T12:36:55.021Z,1011.34
2022-12-13T12:38:33.216Z,1011.31
2022-12-13T12:39:37.582Z,1011.31
2022-12-13T12:41:21.515Z,1011.29
2022-12-13T12:43:26.351Z,1011.26
2022-12-13T12:44:36.446Z,1011.23
2022-12-13T12:46:08.166Z,1011.14
2022-12-13T12:49:32.840Z,1011.18
2022-12-13T12:50:35.685Z,1011.21
2022-12-13T12:51:40.563Z,1011.14
2022-12-13T12:53:16.164Z,1011.16
2022-12-13T12:54:18.884Z,1011.20
2022-12-13T12:55:29.676Z,1011.22
2022-12-13T12:57:04.187Z,1011.21
2022-12-13T12:58:07.497Z,1011.18
2022-12-13T12:59:10.762Z,1011.24
2022-12-13T13:00:22.089Z,1011.24
2022-12-13T13:01:25.075Z,1011.26
2022-12-13T13:02:36.121Z,1011.24
2022-12-13T13:04:28.696Z,1011.30
2022-12-13T13:05:31.494Z,1011.26
2022-12-13T13:06:34.376Z,1011.20
2022-12-13T13:08:26.536Z,1011.21
2022-12-13T13:09:36.148Z,1011.22
2022-12-13T13:10:41.482Z,1011.19
2022-12-13T13:13:52.440Z,1011.17
2022-12-13T13:15:11.168Z,1011.19
2022-12-13T13:16:16.062Z,1011.19
2022-12-13T13:17:50.979Z,1011.21
2022-12-13T13:18:53.730Z,1011.25
2022-12-13T13:20:07.844Z,1011.23
2022-12-13T13:21:46.432Z,1011.20
2022-12-13T13:23:52.279Z,1011.18
2022-12-13T13:24:59.467Z,1011.17
2022-12-13T13:27:22.885Z,1011.12
2022-12-13T13:28:25.676Z,1011.15
2022-12-13T13:29:43.699Z,1011.13
2022-12-13T13:31:18.974Z,1011.12
2022-12-13T13:32:35.619Z,1011.11
2022-12-13T13:33:38.933Z,1011.14
2022-12-13T13:35:13.481Z,1011.09
2022-12-13T13:36:29.001Z,1011.10
2022-12-13T13:37:34.537Z,1011.12
2022-12-13T13:39:13.323Z,1011.08
2022-12-13T13:40:30.509Z,1011.07
2022-12-13T13:41:34.453Z,1011.03
2022-12-13T13:43:11.773Z,1011.04
2022-12-13T13:44:28.769Z,1010.98
2022-12-13T13:45:31.962Z,1011.01
2022-12-13T13:47:11.628Z,1011.02
2022-12-13T13:48:25.969Z,1011.01
2022-12-13T13:49:37.191Z,1011.00
2022-12-13T13:51:19.708Z,1011.04
2022-12-13T13:52:37.277Z,1011.03
2022-12-13T13:53:41.013Z,1011.02
2022-12-13T13:55:15.605Z,1011.05
2022-12-13T13:56:18.424Z,1011.02
2022-12-13T13:57:33.162Z,1011.00
2022-12-13T13:59:49.316Z,1010.98
2022-12-13T14:00:22.866Z,1010.97
2022-12-13T14:01:26.383Z,1010.97
2022-12-13T14:02:29.482Z,1010.96
2022-12-13T14:04:27.958Z,1010.90
2022-12-13T14:05:35.344Z,1010.91
2022-12-13T14:06:38.253Z,1010.91
2022-12-13T14:08:32.056Z,1010.87
2022-12-13T14:09:38.500Z,1010.90
2022-12-13T14:10:41.547Z,1010.88
2022-12-13T14:12:16.220Z,1010.89
2022-12-13T14:13:18.990Z,1010.87
2022-12-13T14:14:38.477Z,1010.85
2022-12-13T14:16:32.491Z,1010.83
2022-12-13T14:17:35.464Z,1010.84
2022-12-13T14:18:38.280Z,1010.86
2022-12-13T14:20:13.313Z,1010.91
2022-12-13T14:21:16.453Z,1010.89
2022-12-13T14:22:19.201Z,1010.91
2022-12-13T14:23:53.833Z,1010.90
2022-12-13T14:24:56.549Z,1010.87
2022-12-13T14:26:03.478Z,1010.86
2022-12-13T14:27:43.252Z,1010.86
2022-12-13T14:28:46.059Z,1010.87
2022-12-13T14:30:27.382Z,1010.85
2022-12-13T14:32:37.022Z,1010.77
2022-12-13T14:33:40.228Z,1010.73
2022-12-13T14:34:50.426Z,1010.75
2022-12-13T14:36:55.235Z,1010.72
2022-12-13T14:38:01.703Z,1010.77
2022-12-13T14:39:04.549Z,1010.76
2022-12-13T14:40:55.078Z,1010.74
2022-12-13T14:42:03.202Z,1010.79
2022-12-13T14:43:06.003Z,1010.75
2022-12-13T14:44:53.643Z,1010.78
2022-12-13T14:46:03.388Z,1010.74
2022-12-13T14:47:06.856Z,1010.74
2022-12-13T14:48:41.677Z,1010.75
2022-12-13T14:49:48.845Z,1010.79
2022-12-13T14:50:52.166Z,1010.78
2022-12-13T14:52:37.610Z,1010.74
2022-12-13T14:53:40.816Z,1010.73
2022-12-13T14:54:43.655Z,1010.74
2022-12-13T14:56:39.298Z,1010.74
2022-12-13T14:57:42.116Z,1010.70
2022-12-13T14:58:44.936Z,1010.62
2022-12-13T15:00:22.473Z,1010.62
2022-12-13T15:01:29.339Z,1010.53
2022-12-13T15:02:42.945Z,1010.55
2022-12-13T15:04:25.296Z,1010.54
2022-12-13T15:05:41.477Z,1010.52
2022-12-13T15:06:54.304Z,1010.47
2022-12-13T15:08:29.021Z,1010.49
2022-12-13T15:09:35.554Z,1010.43
2022-12-13T15:10:38.313Z,1010.42
2022-12-13T15:12:35.374Z,1010.45
2022-12-13T15:13:41.433Z,1010.43
2022-12-13T15:14:44.202Z,1010.42
2022-12-13T15:16:22.305Z,1010.43
2022-12-13T15:17:25.338Z,1010.40
2022-12-13T15:18:28.411Z,1010.43
2022-12-13T15:20:35.459Z,1010.38
2022-12-13T15:21:38.493Z,1010.38
2022-12-13T15:22:47.768Z,1010.41
2022-12-13T15:24:34.591Z,1010.38
2022-12-13T15:25:37.203Z,1010.40
2022-12-13T15:26:41.290Z,1010.36
2022-12-13T15:28:21.199Z,1010.38
2022-12-13T15:29:25.397Z,1010.42
2022-12-13T15:30:36.793Z,1010.40
2022-12-13T15:32:11.740Z,1010.45
2022-12-13T15:33:14.475Z,1010.46
2022-12-13T15:34:40.943Z,1010.45
2022-12-13T15:36:15.669Z,1010.41
2022-12-13T15:37:36.019Z,1010.40
2022-12-13T15:38:40.640Z,1010.43
2022-12-13T15:40:16.018Z,1010.39
2022-12-13T15:41:18.812Z,1010.42
2022-12-13T15:42:25.405Z,1010.40
2022-12-13T15:43:59.839Z,1010.38
2022-12-13T15:45:02.637Z,1010.36
2022-12-13T15:46:06.297Z,1010.36
2022-12-13T15:47:41.296Z,1010.33
2022-12-13T15:48:48.339Z,1010.33
2022-12-13T15:49:51.699Z,1010.36
2022-12-13T15:51:41.589Z,1010.28
2022-12-13T15:52:44.406Z,1010.28
2022-12-13T15:53:50.752Z,1010.26
2022-12-13T15:55:34.504Z,1010.21
2022-12-13T15:56:37.326Z,1010.20
2022-12-13T15:57:40.031Z,1010.16
2022-12-13T15:59:16.233Z,1010.17
2022-12-13T16:00:30.282Z,1010.11
2022-12-13T16:01:35.051Z,1010.13
2022-12-13T16:02:44.293Z,1010.05
2022-12-13T16:04:28.073Z,1010.06
2022-12-13T16:05:30.871Z,1010.06
2022-12-13T16:06:33.791Z,1010.04
2022-12-13T16:08:25.699Z,1010.04
2022-12-13T16:09:28.510Z,1010.00
2022-12-13T16:10:31.322Z,1009.97
2022-12-13T16:12:05.789Z,1009.90
2022-12-13T16:13:14.210Z,1009.91